CheckWX is a tool to help pilots better visualize weather data.  It is not intended as a substitute for an official pre-flight weather briefing.

17:07:29 UTC

KBAB METAR
Beale AFB Airport
Marysville, California, USA
Current

1 hour ago

KBAB 211558Z AUTO 00000KT 10SM CLR 23/13 A2990 RMK AO2 SLP127 T02270132 $
Observed
Jul-21 @ 15:58 UTC
Visibility
10 SM
Flight Rules
VFR
Cloud Levels
  • Clear skies
Temperature
23°C / 73°F
Dewpoint
13°C / 55°F
Humidity
53%
Altimeter
29.9" Hg
Pressure
1012.52 hPa
Previous

2 hours ago

KBAB 211458Z AUTO 00000KT 10SM CLR 20/13 A2988 RMK AO2 SLP121 T02020129 52015 $
Observed
Jul-21 @ 14:58 UTC
Visibility
10 SM
Flight Rules
VFR
Cloud Levels
  • Clear skies
Temperature
20°C / 68°F
Dewpoint
13°C / 55°F
Humidity
64%
Altimeter
29.88" Hg
Pressure
1011.82 hPa
Previous

3 hours ago

KBAB 211358Z AUTO 28003KT 10SM CLR 18/13 A2987 RMK AO2 SLP117 T01760133 $
Observed
Jul-21 @ 13:58 UTC
Wind
  • 280° at 3 KTS
Visibility
10 SM
Flight Rules
VFR
Cloud Levels
  • Clear skies
Temperature
18°C / 64°F
Dewpoint
13°C / 55°F
Humidity
73%
Altimeter
29.87" Hg
Pressure
1011.52 hPa